Time;durP1;ratioP1;P1;durP2;ratioP2;P2;SDS_P1;SDS_P2;PMS_P1;PMS_P2;Temp;Humidity;BMP_temperature;BMP_pressure;BME280_temperature;BME280_humidity;BME280_pressure;Samples;Min_cycle;Max_cycle;Signal;HPM_P1;HPM_P2
2021/06/29 00:01:32;;;;;;;7.80;7.10;;;20.10;99.90;;;;;;4994891;28;20258;-73
2021/06/29 00:03:57;;;;;;;9.67;8.40;;;19.90;99.90;;;;;;4994533;28;20456;-74
2021/06/29 00:06:23;;;;;;;9.93;9.10;;;19.70;99.90;;;;;;4993631;28;20544;-74
2021/06/29 00:08:48;;;;;;;12.30;9.17;;;19.60;99.90;;;;;;4994823;28;20226;-72
2021/06/29 00:11:16;;;;;;;10.37;9.47;;;19.50;99.90;;;;;;4993382;28;20302;-74
2021/06/29 00:13:43;;;;;;;14.93;10.53;;;19.50;99.90;;;;;;4994117;28;20222;-75
2021/06/29 00:16:09;;;;;;;11.47;10.40;;;19.50;99.90;;;;;;4993514;28;20968;-75
2021/06/29 00:18:34;;;;;;;12.50;11.00;;;19.50;99.90;;;;;;4994465;28;20414;-73
2021/06/29 00:21:00;;;;;;;13.40;12.20;;;19.50;99.90;;;;;;4994405;28;20190;-72
2021/06/29 00:23:26;;;;;;;13.10;11.90;;;19.50;99.90;;;;;;4994126;28;20191;-73
2021/06/29 00:25:51;;;;;;;15.83;13.20;;;19.50;99.90;;;;;;4994171;28;20282;-74
2021/06/29 00:28:17;;;;;;;14.37;12.90;;;19.50;99.90;;;;;;4994230;28;20584;-74
2021/06/29 00:30:42;;;;;;;14.53;13.23;;;19.50;99.90;;;;;;4993982;28;20186;-73
2021/06/29 00:33:08;;;;;;;14.80;13.27;;;19.40;99.90;;;;;;4993911;28;20203;-75
2021/06/29 00:35:34;;;;;;;23.00;14.37;;;19.40;99.90;;;;;;4976643;28;20247;-73
2021/06/29 00:37:59;;;;;;;13.77;12.37;;;19.40;99.90;;;;;;4992873;28;20180;-73
2021/06/29 00:40:25;;;;;;;14.60;13.03;;;19.30;99.90;;;;;;4994016;28;20180;-75
2021/06/29 00:42:51;;;;;;;15.33;13.80;;;19.30;99.90;;;;;;4992586;28;20183;-74
2021/06/29 00:45:17;;;;;;;16.73;14.77;;;19.30;99.90;;;;;;4994011;28;20476;-74
2021/06/29 00:47:42;;;;;;;16.43;14.83;;;19.20;99.90;;;;;;4994009;28;20179;-75
2021/06/29 00:50:09;;;;;;;16.63;14.93;;;19.30;99.90;;;;;;4993971;28;20271;-74
2021/06/29 00:52:35;;;;;;;16.70;14.90;;;19.30;99.90;;;;;;4994017;28;20234;-73
2021/06/29 00:55:01;;;;;;;18.80;15.90;;;19.10;99.90;;;;;;4993591;28;20518;-74
2021/06/29 00:57:26;;;;;;;16.43;13.93;;;19.20;99.90;;;;;;4994031;28;20172;-75
2021/06/29 00:59:52;;;;;;;17.43;15.50;;;19.20;99.90;;;;;;4994190;28;20388;-75
2021/06/29 01:02:18;;;;;;;16.80;15.30;;;19.30;99.90;;;;;;4992755;28;20180;-74
2021/06/29 01:04:45;;;;;;;16.77;15.03;;;19.30;99.90;;;;;;4993363;28;20250;-74
2021/06/29 01:07:12;;;;;;;19.43;14.37;;;19.30;99.90;;;;;;4993917;28;20203;-76
2021/06/29 01:09:39;;;;;;;18.07;14.43;;;19.30;99.90;;;;;;4992584;28;20950;-75
2021/06/29 01:12:08;;;;;;;15.60;12.67;;;19.20;99.90;;;;;;4993672;28;20437;-73
2021/06/29 01:14:33;;;;;;;18.40;14.77;;;19.10;99.90;;;;;;4993274;28;20450;-74
2021/06/29 01:17:02;;;;;;;16.93;14.33;;;19.10;99.90;;;;;;4993856;28;20418;-74
2021/06/29 01:19:36;;;;;;;15.70;14.20;;;19.10;99.90;;;;;;4993938;28;20167;-74
2021/06/29 01:22:04;;;;;;;12.37;9.83;;;19.10;99.90;;;;;;4993689;28;20418;-75
2021/06/29 01:24:31;;;;;;;11.87;10.30;;;19.00;99.90;;;;;;4993384;28;20417;-74
2021/06/29 01:32:16;;;;;;;12.07;10.80;;;18.90;99.90;;;;;;4993671;28;20499;-74
2021/06/29 01:34:42;;;;;;;13.63;12.03;;;18.90;99.90;;;;;;4993135;28;20532;-75
2021/06/29 01:37:07;;;;;;;11.80;10.70;;;18.90;99.90;;;;;;4993426;28;20957;-75
2021/06/29 01:39:33;;;;;;;12.17;9.73;;;18.90;99.90;;;;;;4996911;28;20415;-75
2021/06/29 01:41:59;;;;;;;8.30;6.40;;;18.70;99.90;;;;;;4997332;28;20414;-75
2021/06/29 01:44:35;;;;;;;7.60;5.70;;;18.50;99.90;;;;;;4995689;28;20222;-72
2021/06/29 01:47:04;;;;;;;6.33;5.57;;;18.50;99.90;;;;;;4997074;28;20652;-75
2021/06/29 01:49:30;;;;;;;7.00;5.03;;;18.40;99.90;;;;;;4997514;28;20385;-75
2021/06/29 01:51:56;;;;;;;8.80;5.80;;;18.40;99.90;;;;;;4995982;28;20520;-75
2021/06/29 01:54:22;;;;;;;5.70;4.07;;;18.30;99.90;;;;;;4996924;28;20440;-76
2021/06/29 01:56:51;;;;;;;4.60;3.20;;;18.10;99.90;;;;;;4997046;28;20428;-74
2021/06/29 01:59:20;;;;;;;5.97;3.27;;;18.10;99.90;;;;;;4996985;28;20381;-73
2021/06/29 02:01:46;;;;;;;6.10;3.10;;;18.10;99.90;;;;;;4996943;28;20791;-75
2021/06/29 02:04:12;;;;;;;8.20;3.60;;;17.90;99.90;;;;;;4996630;28;20416;-72
2021/06/29 02:06:39;;;;;;;4.93;2.90;;;17.80;99.90;;;;;;4997145;28;20182;-74
2021/06/29 02:09:08;;;;;;;6.60;2.73;;;17.60;99.90;;;;;;4996689;28;20397;-74
2021/06/29 02:11:36;;;;;;;5.70;3.43;;;17.60;99.90;;;;;;4996978;28;20441;-74
2021/06/29 02:14:02;;;;;;;7.20;3.30;;;17.60;99.90;;;;;;4996432;28;20536;-75
2021/06/29 02:16:28;;;;;;;4.90;2.90;;;17.70;99.90;;;;;;4997067;28;20974;-74
2021/06/29 02:18:53;;;;;;;9.60;3.37;;;17.60;99.90;;;;;;4996758;28;20407;-75
2021/06/29 02:21:19;;;;;;;6.43;3.30;;;17.60;99.90;;;;;;4996583;28;20581;-74
2021/06/29 02:23:44;;;;;;;3.43;3.10;;;17.50;99.90;;;;;;4996161;28;20702;-75
2021/06/29 02:26:10;;;;;;;7.70;3.90;;;17.60;99.90;;;;;;4996656;28;20180;-74
2021/06/29 02:28:36;;;;;;;10.10;3.57;;;17.60;99.90;;;;;;4996497;28;20559;-76
2021/06/29 02:31:01;;;;;;;8.30;3.60;;;17.60;99.90;;;;;;4996282;28;20249;-75
2021/06/29 02:33:27;;;;;;;3.83;3.53;;;17.60;99.90;;;;;;4994804;28;20176;-73
2021/06/29 02:35:52;;;;;;;7.83;3.67;;;17.60;99.90;;;;;;4995104;28;20221;-74
2021/06/29 02:38:18;;;;;;;6.20;3.10;;;17.50;99.90;;;;;;4996339;28;20215;-74
2021/06/29 02:40:44;;;;;;;4.67;3.10;;;17.50;99.90;;;;;;4996370;28;20187;-73
2021/06/29 02:43:09;;;;;;;7.20;3.33;;;17.60;99.90;;;;;;4995940;28;20629;-74
2021/06/29 02:45:35;;;;;;;3.50;3.20;;;17.50;99.90;;;;;;4995910;28;20206;-75
2021/06/29 02:48:01;;;;;;;9.97;3.27;;;17.50;99.90;;;;;;4996130;28;20192;-72
2021/06/29 02:50:27;;;;;;;6.17;3.60;;;17.50;99.90;;;;;;4993802;28;20190;-74
2021/06/29 02:52:53;;;;;;;7.03;3.60;;;17.50;99.90;;;;;;4995641;28;20536;-75
2021/06/29 02:55:19;;;;;;;5.80;4.07;;;17.50;99.90;;;;;;4996204;28;20427;-76
2021/06/29 02:57:45;;;;;;;4.30;3.33;;;17.50;99.90;;;;;;4995928;28;20893;-74
2021/06/29 03:00:17;;;;;;;4.23;3.07;;;17.50;99.90;;;;;;4995925;28;20179;-76
2021/06/29 03:02:44;;;;;;;5.50;4.10;;;17.50;99.90;;;;;;4996002;28;20397;-72
2021/06/29 03:05:10;;;;;;;6.90;3.80;;;17.60;99.90;;;;;;4995958;28;20455;-74
2021/06/29 03:07:35;;;;;;;5.57;3.30;;;17.60;99.90;;;;;;4995692;28;20449;-75
2021/06/29 03:10:04;;;;;;;5.80;3.80;;;17.60;99.90;;;;;;4995686;28;20419;-75
2021/06/29 03:12:30;;;;;;;5.23;3.40;;;17.70;99.90;;;;;;4994414;28;20234;-74
2021/06/29 03:14:57;;;;;;;4.27;3.10;;;17.70;99.90;;;;;;4993997;28;20496;-75
2021/06/29 03:17:23;;;;;;;5.47;3.40;;;17.70;99.90;;;;;;4994466;28;20172;-73
2021/06/29 03:19:49;;;;;;;3.03;2.73;;;17.70;99.90;;;;;;4995392;28;20842;-75
2021/06/29 03:22:15;;;;;;;3.20;2.90;;;17.70;99.90;;;;;;4994563;28;20418;-75
2021/06/29 03:24:41;;;;;;;3.50;2.87;;;17.60;99.90;;;;;;4995201;28;20668;-74
2021/06/29 03:27:08;;;;;;;3.70;3.23;;;17.60;99.90;;;;;;4995512;28;20652;-75
2021/06/29 03:29:34;;;;;;;3.73;3.00;;;17.60;99.90;;;;;;4995428;28;20385;-74
2021/06/29 03:32:00;;;;;;;4.97;3.10;;;17.60;99.90;;;;;;4995196;28;20461;-73
2021/06/29 03:34:25;;;;;;;3.40;2.80;;;17.50;99.90;;;;;;4977467;28;20417;-73
2021/06/29 03:36:51;;;;;;;5.13;3.10;;;17.60;99.90;;;;;;4995251;28;20542;-74
2021/06/29 03:39:18;;;;;;;4.27;3.13;;;17.50;99.90;;;;;;4995169;28;20172;-75
2021/06/29 03:41:44;;;;;;;5.50;3.27;;;17.60;99.90;;;;;;4995108;28;20581;-75
2021/06/29 03:44:09;;;;;;;4.70;2.90;;;17.70;99.90;;;;;;4994633;28;20413;-73
2021/06/29 03:46:35;;;;;;;4.60;3.50;;;17.70;99.90;;;;;;4995028;28;20567;-73
2021/06/29 03:49:00;;;;;;;5.03;3.93;;;17.60;99.90;;;;;;4994961;28;20183;-74
2021/06/29 03:51:27;;;;;;;9.83;3.60;;;17.60;99.90;;;;;;4995082;28;20211;-75
2021/06/29 03:53:53;;;;;;;5.10;3.00;;;17.60;99.90;;;;;;4994464;28;20183;-72
2021/06/29 03:56:28;;;;;;;7.27;3.33;;;17.50;99.90;;;;;;4994959;28;20753;-75
2021/06/29 03:58:56;;;;;;;6.50;3.50;;;17.40;99.90;;;;;;4994688;28;20167;-75
2021/06/29 04:01:22;;;;;;;5.47;3.60;;;17.40;99.90;;;;;;4994566;28;20923;-73
2021/06/29 04:03:48;;;;;;;4.83;4.30;;;17.30;99.90;;;;;;4994339;28;20397;-73
2021/06/29 04:06:14;;;;;;;3.73;2.70;;;17.30;99.90;;;;;;4994663;28;20258;-74
2021/06/29 04:08:40;;;;;;;5.77;2.93;;;17.40;99.90;;;;;;4994652;28;20465;-76
2021/06/29 04:11:06;;;;;;;6.20;3.20;;;17.50;99.90;;;;;;4994313;28;20458;-74
2021/06/29 04:13:31;;;;;;;5.93;3.17;;;17.50;99.90;;;;;;4994102;28;20405;-74
2021/06/29 04:15:57;;;;;;;4.70;3.20;;;17.50;99.90;;;;;;4994697;28;20172;-73
2021/06/29 04:18:22;;;;;;;3.63;3.27;;;17.50;99.90;;;;;;4994287;28;20182;-76
2021/06/29 04:20:48;;;;;;;4.80;3.07;;;17.50;99.90;;;;;;4994420;28;20176;-74
2021/06/29 04:23:13;;;;;;;3.17;2.80;;;17.60;99.90;;;;;;4994101;28;20176;-73
2021/06/29 04:25:39;;;;;;;3.90;3.00;;;17.50;99.90;;;;;;4994294;28;20278;-75
2021/06/29 04:28:05;;;;;;;3.97;2.97;;;17.50;99.90;;;;;;4994185;28;20187;-73
2021/06/29 04:30:30;;;;;;;3.73;3.13;;;17.60;99.90;;;;;;4994307;28;20182;-77
2021/06/29 04:32:56;;;;;;;3.47;3.17;;;17.60;99.90;;;;;;4993836;28;20604;-75
2021/06/29 04:35:22;;;;;;;8.00;2.80;;;17.50;99.90;;;;;;4994085;28;20723;-72
2021/06/29 04:37:48;;;;;;;4.83;3.23;;;17.60;99.90;;;;;;4994317;28;20183;-76
2021/06/29 04:40:14;;;;;;;5.50;3.10;;;17.70;99.90;;;;;;4992862;28;20184;-77
2021/06/29 04:42:40;;;;;;;4.20;3.20;;;17.70;99.90;;;;;;4993980;28;20490;-77
2021/06/29 04:45:06;;;;;;;3.37;2.60;;;17.80;99.90;;;;;;4993727;28;20440;-76
2021/06/29 04:47:39;;;;;;;3.43;2.93;;;17.90;99.90;;;;;;4992860;28;20180;-76
2021/06/29 04:50:05;;;;;;;5.20;4.27;;;17.90;99.90;;;;;;4993973;28;20419;-74
2021/06/29 04:52:32;;;;;;;6.70;3.07;;;18.00;99.90;;;;;;4992300;28;20544;-76
2021/06/29 04:54:58;;;;;;;3.13;2.80;;;17.90;99.90;;;;;;4993618;28;20401;-75
2021/06/29 04:57:24;;;;;;;6.10;3.43;;;17.90;99.90;;;;;;4992737;28;20474;-76
2021/06/29 04:59:49;;;;;;;4.90;3.10;;;17.90;99.90;;;;;;4993798;28;20526;-76
2021/06/29 05:02:15;;;;;;;7.57;3.20;;;17.90;99.90;;;;;;4994085;28;20182;-76
2021/06/29 05:04:40;;;;;;;5.83;3.27;;;18.00;99.90;;;;;;4993557;28;20206;-76
2021/06/29 05:07:06;;;;;;;4.57;3.17;;;18.00;99.90;;;;;;4994063;28;20184;-75
2021/06/29 05:09:32;;;;;;;5.20;3.23;;;17.90;99.90;;;;;;4992593;28;20210;-75
2021/06/29 05:11:57;;;;;;;11.73;3.30;;;18.00;99.90;;;;;;4993838;28;20716;-77
2021/06/29 05:14:23;;;;;;;7.70;3.60;;;18.00;99.90;;;;;;4996652;28;20217;-75
2021/06/29 05:16:49;;;;;;;2.77;2.57;;;18.10;99.90;;;;;;4996556;28;20546;-75
2021/06/29 05:19:14;;;;;;;5.00;3.07;;;18.20;99.90;;;;;;4997808;28;20187;-75
2021/06/29 05:21:40;;;;;;;4.67;2.93;;;18.20;99.90;;;;;;4997625;28;20187;-76
2021/06/29 05:24:06;;;;;;;3.23;2.50;;;18.20;99.90;;;;;;4997449;28;20282;-74
2021/06/29 05:26:31;;;;;;;6.03;3.30;;;18.20;99.90;;;;;;4997756;28;20270;-75
2021/06/29 05:28:57;;;;;;;7.40;2.90;;;18.20;99.90;;;;;;4980340;28;20233;-75
2021/06/29 05:31:23;;;;;;;5.20;2.50;;;18.20;99.90;;;;;;4997714;28;20625;-76
2021/06/29 05:33:48;;;;;;;4.27;2.23;;;18.20;99.90;;;;;;4997271;28;20231;-76
2021/06/29 05:36:14;;;;;;;3.57;2.70;;;18.30;99.90;;;;;;4997375;28;20175;-76
2021/06/29 05:38:39;;;;;;;4.07;2.50;;;18.30;99.90;;;;;;4997304;28;20175;-75
2021/06/29 05:41:05;;;;;;;4.00;2.30;;;18.40;99.90;;;;;;4997433;28;20184;-76
2021/06/29 05:43:31;;;;;;;5.57;2.50;;;18.50;99.90;;;;;;4996998;28;20556;-74
2021/06/29 05:45:56;;;;;;;2.57;2.37;;;18.40;99.90;;;;;;4997518;28;20176;-76
2021/06/29 05:48:22;;;;;;;5.57;2.67;;;18.50;99.90;;;;;;4997224;28;20179;-75
2021/06/29 05:50:48;;;;;;;9.47;2.23;;;18.50;99.90;;;;;;4996954;28;20175;-75
2021/06/29 05:53:14;;;;;;;3.30;2.40;;;18.60;99.90;;;;;;4996915;28;20472;-76
2021/06/29 05:55:40;;;;;;;4.53;2.53;;;18.50;99.90;;;;;;4997010;28;20196;-77
2021/06/29 05:58:06;;;;;;;4.70;2.13;;;18.60;99.90;;;;;;4997466;28;20803;-74
2021/06/29 06:00:32;;;;;;;4.80;2.10;;;18.70;99.90;;;;;;4997060;28;20414;-75
2021/06/29 06:02:57;;;;;;;4.27;2.13;;;18.80;99.90;;;;;;4996820;28;20183;-76
2021/06/29 06:05:23;;;;;;;3.90;2.30;;;18.90;99.90;;;;;;4996891;28;20281;-74
2021/06/29 06:07:49;;;;;;;3.00;2.17;;;18.90;99.90;;;;;;4997014;28;20183;-74
2021/06/29 06:10:14;;;;;;;4.83;3.10;;;18.80;99.90;;;;;;4995706;28;20730;-76
2021/06/29 06:12:40;;;;;;;5.23;2.00;;;19.00;99.90;;;;;;4996695;28;20210;-78
2021/06/29 06:15:06;;;;;;;6.57;2.47;;;18.90;99.90;;;;;;4996400;28;20211;-77
2021/06/29 06:17:37;;;;;;;2.03;1.80;;;18.90;99.90;;;;;;4996857;28;20172;-75
2021/06/29 06:20:05;;;;;;;3.50;2.20;;;19.10;99.90;;;;;;4996972;28;20401;-76
2021/06/29 06:22:30;;;;;;;2.80;2.00;;;19.00;99.90;;;;;;4996718;28;20424;-76
2021/06/29 06:24:56;;;;;;;1.93;1.70;;;19.10;99.90;;;;;;4996225;28;20437;-76
2021/06/29 06:27:21;;;;;;;3.90;1.80;;;19.10;99.90;;;;;;4996665;28;20270;-77
2021/06/29 06:29:47;;;;;;;4.63;1.60;;;19.10;99.90;;;;;;4995760;28;20222;-77
2021/06/29 06:32:13;;;;;;;3.27;2.00;;;19.10;99.90;;;;;;4993794;28;20199;-77
2021/06/29 06:34:38;;;;;;;6.90;2.00;;;19.10;99.90;;;;;;4995053;28;20298;-76
2021/06/29 06:37:04;;;;;;;3.83;2.03;;;19.10;99.90;;;;;;4995596;28;20652;-76
2021/06/29 06:39:30;;;;;;;4.37;2.90;;;19.20;99.90;;;;;;4995720;28;20172;-75
2021/06/29 06:41:55;;;;;;;3.93;2.10;;;19.20;99.90;;;;;;4995761;28;20188;-76
2021/06/29 06:44:21;;;;;;;3.73;2.03;;;19.20;99.90;;;;;;4995242;28;20695;-76
2021/06/29 06:46:47;;;;;;;5.33;1.70;;;19.30;99.90;;;;;;4995863;28;20176;-75
2021/06/29 06:49:12;;;;;;;6.03;1.93;;;19.40;99.90;;;;;;4995825;28;20179;-77
2021/06/29 06:51:38;;;;;;;5.07;1.50;;;19.40;99.90;;;;;;4996007;28;20211;-78
2021/06/29 06:54:04;;;;;;;1.60;1.50;;;19.30;99.90;;;;;;4994494;28;20574;-76
2021/06/29 06:56:29;;;;;;;1.70;1.60;;;19.30;99.90;;;;;;4996191;28;20172;-76
2021/06/29 06:58:55;;;;;;;2.10;1.33;;;19.30;99.90;;;;;;4996059;28;20424;-75
2021/06/29 07:01:21;;;;;;;5.73;1.70;;;19.30;99.90;;;;;;4995926;28;20180;-76
2021/06/29 07:03:46;;;;;;;2.93;1.30;;;19.30;99.90;;;;;;4995490;28;20184;-78
2021/06/29 07:06:13;;;;;;;2.30;1.30;;;19.20;99.90;;;;;;4996069;28;20203;-76
2021/06/29 07:08:39;;;;;;;5.77;1.40;;;19.20;99.90;;;;;;4996048;28;20180;-75
2021/06/29 07:11:06;;;;;;;4.60;1.27;;;19.40;99.90;;;;;;4995916;28;20462;-77
2021/06/29 07:13:32;;;;;;;3.47;1.53;;;19.30;99.90;;;;;;4995377;28;20405;-75
2021/06/29 07:15:58;;;;;;;4.60;1.17;;;19.10;99.90;;;;;;4995961;28;20900;-76
2021/06/29 07:18:23;;;;;;;5.40;1.70;;;19.20;99.90;;;;;;4995755;28;20199;-75
2021/06/29 07:20:49;;;;;;;3.00;1.20;;;19.20;99.90;;;;;;4995734;28;20533;-74
2021/06/29 07:23:17;;;;;;;1.83;1.20;;;19.30;99.90;;;;;;4995326;28;20194;-75
2021/06/29 07:25:43;;;;;;;5.30;1.30;;;19.30;99.90;;;;;;4995437;28;20194;-75
2021/06/29 07:28:09;;;;;;;2.20;1.17;;;19.20;99.90;;;;;;4995525;28;20393;-74
2021/06/29 07:30:36;;;;;;;1.53;1.10;;;19.30;99.90;;;;;;4994295;28;20187;-75
2021/06/29 07:33:03;;;;;;;2.90;1.20;;;19.40;99.90;;;;;;4994975;28;20520;-76
2021/06/29 07:35:30;;;;;;;3.83;1.10;;;19.40;99.90;;;;;;4994758;28;20759;-76
2021/06/29 07:37:57;;;;;;;1.27;1.17;;;19.30;99.90;;;;;;4995312;28;20406;-76
2021/06/29 07:40:25;;;;;;;1.23;0.90;;;19.30;99.90;;;;;;4995433;28;20386;-75
2021/06/29 07:42:51;;;;;;;1.40;0.90;;;19.40;99.90;;;;;;4993542;28;20919;-77
2021/06/29 07:45:17;;;;;;;1.50;1.17;;;19.60;99.90;;;;;;4995152;28;20446;-74
2021/06/29 07:47:43;;;;;;;1.33;0.90;;;19.70;99.90;;;;;;4994930;28;20406;-75
2021/06/29 07:50:10;;;;;;;1.40;1.10;;;19.80;99.90;;;;;;4994929;28;20218;-75
2021/06/29 07:52:36;;;;;;;4.30;1.13;;;20.00;99.90;;;;;;4994804;28;20429;-77
2021/06/29 07:55:06;;;;;;;0.90;0.80;;;20.00;99.90;;;;;;4993276;28;20453;-75
2021/06/29 07:57:32;;;;;;;1.10;0.80;;;20.00;99.90;;;;;;4994890;28;20423;-76
2021/06/29 07:59:58;;;;;;;1.10;0.90;;;20.00;99.90;;;;;;4994664;28;20454;-75
2021/06/29 08:02:24;;;;;;;2.07;1.00;;;20.10;99.90;;;;;;4995024;28;20381;-76
2021/06/29 08:04:49;;;;;;;1.50;0.90;;;20.20;99.90;;;;;;4994601;28;20199;-77
2021/06/29 08:07:15;;;;;;;1.87;1.00;;;20.30;99.90;;;;;;4994788;28;20183;-75
2021/06/29 08:09:41;;;;;;;2.80;1.20;;;20.40;99.90;;;;;;4994594;28;20544;-74
2021/06/29 08:12:07;;;;;;;1.60;0.90;;;20.50;99.90;;;;;;4994455;28;20826;-75
2021/06/29 08:14:33;;;;;;;2.10;1.37;;;20.60;99.90;;;;;;4994139;28;20429;-76
2021/06/29 08:17:01;;;;;;;1.63;0.83;;;20.60;99.90;;;;;;4989680;28;20191;-77
2021/06/29 08:19:27;;;;;;;4.10;1.20;;;20.60;99.90;;;;;;4991788;28;20413;-75
2021/06/29 08:21:53;;;;;;;2.80;1.20;;;20.90;99.90;;;;;;4993130;28;20206;-76
2021/06/29 08:24:18;;;;;;;2.90;1.20;;;21.20;99.90;;;;;;4991681;28;20214;-76
2021/06/29 08:26:45;;;;;;;7.40;1.20;;;21.00;99.90;;;;;;4992711;28;20187;-76
2021/06/29 08:29:11;;;;;;;3.17;1.17;;;21.30;99.90;;;;;;4993084;28;20194;-74
2021/06/29 08:31:37;;;;;;;1.77;0.83;;;21.30;99.90;;;;;;4991805;28;20557;-76
2021/06/29 08:34:03;;;;;;;3.03;1.27;;;21.40;99.90;;;;;;4992729;28;20207;-76
2021/06/29 08:36:30;;;;;;;1.60;1.20;;;21.50;99.90;;;;;;4992422;28;20457;-76
2021/06/29 08:38:56;;;;;;;4.10;1.20;;;21.60;99.90;;;;;;4992249;28;20427;-77
2021/06/29 08:41:22;;;;;;;3.30;1.23;;;21.70;99.90;;;;;;4992511;28;20939;-75
2021/06/29 08:43:49;;;;;;;1.83;1.23;;;21.90;99.90;;;;;;4992549;28;20999;-76
2021/06/29 08:46:15;;;;;;;1.57;1.10;;;22.20;99.90;;;;;;4991702;28;20419;-77
2021/06/29 08:48:41;;;;;;;2.87;1.40;;;22.30;99.90;;;;;;4992738;28;20870;-77
2021/06/29 08:51:07;;;;;;;1.60;1.20;;;22.30;99.90;;;;;;4992312;28;20215;-75
2021/06/29 08:53:34;;;;;;;2.93;1.20;;;22.60;99.90;;;;;;4991629;28;20300;-76
2021/06/29 08:56:01;;;;;;;3.13;1.47;;;22.70;99.90;;;;;;4991600;28;20422;-76
2021/06/29 08:58:28;;;;;;;1.93;1.10;;;22.70;99.90;;;;;;4992184;28;20429;-75
2021/06/29 09:00:55;;;;;;;1.87;1.17;;;22.60;99.90;;;;;;4991809;28;20897;-76
2021/06/29 09:03:22;;;;;;;1.40;1.10;;;22.80;99.90;;;;;;4991933;28;20411;-77
2021/06/29 09:05:51;;;;;;;1.30;1.20;;;22.90;99.90;;;;;;4992513;28;20450;-76
2021/06/29 09:08:19;;;;;;;5.70;1.90;;;23.30;99.90;;;;;;4991636;28;20419;-75
2021/06/29 09:11:20;;;;;;;1.33;1.20;;;22.80;99.90;;;;;;4991161;28;20431;-76
2021/06/29 09:14:39;;;;;;;1.33;1.00;;;23.50;99.90;;;;;;4973569;28;20480;-77
2021/06/29 09:17:21;;;;;;;1.93;1.30;;;23.20;99.90;;;;;;4931700;29;20449;-78
2021/06/29 09:19:46;;;;;;;3.23;1.20;;;23.20;99.90;;;;;;4960035;28;20503;-76
2021/06/29 09:22:30;;;;;;;4.77;0.97;;;23.00;99.90;;;;;;4972388;28;20464;-76
2021/06/29 09:24:57;;;;;;;2.63;1.10;;;22.90;99.90;;;;;;4971493;28;20259;-76
2021/06/29 09:27:46;;;;;;;4.60;1.27;;;23.30;99.90;;;;;;4972322;28;20423;-76
2021/06/29 09:30:27;;;;;;;1.57;1.10;;;23.80;99.90;;;;;;4972316;28;20918;-77
2021/06/29 09:32:57;;;;;;;7.27;1.57;;;23.70;99.90;;;;;;4971036;28;20475;-79
2021/06/29 09:35:24;;;;;;;1.10;0.90;;;23.30;99.90;;;;;;4970395;28;20478;-77
2021/06/29 09:37:50;;;;;;;1.13;1.03;;;23.10;99.90;;;;;;4969097;28;20435;-75
2021/06/29 09:40:18;;;;;;;1.30;0.87;;;23.20;99.90;;;;;;4972117;28;20655;-74
2021/06/29 09:42:44;;;;;;;4.50;1.17;;;23.40;99.90;;;;;;4972168;28;20431;-76
2021/06/29 09:45:33;;;;;;;1.60;1.03;;;23.10;99.90;;;;;;4972011;28;20450;-77
2021/06/29 09:47:59;;;;;;;1.60;1.00;;;23.60;99.90;;;;;;4972885;28;20184;-76
2021/06/29 09:50:50;;;;;;;1.20;0.73;;;23.40;99.90;;;;;;4972322;28;20426;-76
2021/06/29 09:53:31;;;;;;;1.20;0.73;;;23.70;99.90;;;;;;4972584;28;20416;-75
2021/06/29 09:56:04;;;;;;;1.30;1.20;;;23.90;99.90;;;;;;4971117;28;20427;-76
2021/06/29 09:58:32;;;;;;;1.30;0.70;;;23.80;99.90;;;;;;4970463;28;20435;-76
2021/06/29 10:01:00;;;;;;;4.00;0.83;;;23.60;99.90;;;;;;4975715;28;20763;-75
2021/06/29 10:03:37;;;;;;;3.80;0.83;;;23.60;99.90;;;;;;4974492;28;20422;-77
2021/06/29 10:06:09;;;;;;;1.40;0.83;;;24.00;99.90;;;;;;4975451;28;20444;-76
2021/06/29 10:08:36;;;;;;;1.63;1.00;;;24.20;99.90;;;;;;4975391;28;20419;-77
2021/06/29 10:11:15;;;;;;;1.83;0.90;;;24.50;99.90;;;;;;4976004;28;20423;-77
2021/06/29 10:13:47;;;;;;;2.07;1.20;;;25.00;99.90;;;;;;4974601;28;20443;-75
2021/06/29 10:16:15;;;;;;;2.10;0.80;;;24.80;99.90;;;;;;4976275;28;20419;-76
2021/06/29 10:19:03;;;;;;;0.97;0.73;;;25.00;99.90;;;;;;4979960;28;20434;-76
2021/06/29 10:21:30;;;;;;;1.00;0.80;;;25.50;99.90;;;;;;4993056;28;20445;-77
2021/06/29 10:24:02;;;;;;;1.83;0.67;;;26.00;99.90;;;;;;4994528;28;20500;-75
2021/06/29 10:26:31;;;;;;;1.57;0.90;;;25.70;99.90;;;;;;4994761;28;20833;-76
2021/06/29 10:28:57;;;;;;;1.10;0.90;;;26.10;99.90;;;;;;4994211;28;20518;-76
2021/06/29 10:31:32;;;;;;;0.80;0.80;;;25.70;99.90;;;;;;4994496;28;20465;-77
2021/06/29 10:34:00;;;;;;;1.80;0.80;;;25.10;99.90;;;;;;4994800;28;20800;-76
2021/06/29 10:36:27;;;;;;;0.80;0.80;;;25.30;99.90;;;;;;4993751;28;20809;-75
2021/06/29 10:38:55;;;;;;;0.90;0.80;;;26.00;99.90;;;;;;4995056;28;20411;-76
2021/06/29 10:41:23;;;;;;;1.43;1.33;;;26.30;99.90;;;;;;4994610;28;20966;-76
2021/06/29 10:43:50;;;;;;;1.80;0.90;;;26.20;99.90;;;;;;4993997;28;20446;-75
2021/06/29 10:46:49;;;;;;;1.77;0.87;;;26.30;99.90;;;;;;4994197;28;20502;-76
2021/06/29 10:49:33;;;;;;;2.90;1.30;;;26.20;99.90;;;;;;4994546;28;20445;-75
2021/06/29 10:52:05;;;;;;;1.50;1.20;;;26.40;99.90;;;;;;4994010;28;20462;-75
2021/06/29 10:54:38;;;;;;;1.40;1.30;;;25.70;99.90;;;;;;4994166;28;20927;-75
2021/06/29 10:57:10;;;;;;;3.20;1.30;;;25.40;99.90;;;;;;4978809;28;20514;-75
2021/06/29 10:59:39;;;;;;;1.10;1.00;;;25.70;99.90;;;;;;4975442;28;20578;-75
2021/06/29 11:02:05;;;;;;;1.00;0.90;;;25.90;99.90;;;;;;4976194;28;20458;-76
2021/06/29 11:04:51;;;;;;;2.03;1.00;;;26.00;99.90;;;;;;4975660;28;20892;-76
2021/06/29 11:07:26;;;;;;;1.97;1.03;;;27.00;99.90;;;;;;4976205;28;20222;-76
2021/06/29 11:09:59;;;;;;;2.90;1.30;;;26.70;99.90;;;;;;4975272;28;20494;-75
2021/06/29 11:12:27;;;;;;;1.70;1.20;;;27.20;99.90;;;;;;4974799;28;20459;-75
2021/06/29 11:14:55;;;;;;;2.07;1.30;;;27.60;99.90;;;;;;4975602;28;20455;-75
2021/06/29 11:17:23;;;;;;;1.67;1.30;;;27.40;99.90;;;;;;4976088;28;20510;-75
2021/06/29 11:20:00;;;;;;;1.00;0.97;;;27.20;99.90;;;;;;4983354;28;20954;-76
2021/06/29 11:22:51;;;;;;;1.27;1.17;;;27.00;99.90;;;;;;4994935;28;20426;-76
2021/06/29 11:25:37;;;;;;;1.87;1.53;;;27.70;99.90;;;;;;4975724;28;20515;-76
2021/06/29 11:28:04;;;;;;;2.37;1.33;;;27.70;99.90;;;;;;4975200;28;20418;-76
2021/06/29 11:31:10;;;;;;;3.43;1.40;;;28.30;99.90;;;;;;4975955;28;20411;-74
2021/06/29 11:33:43;;;;;;;1.70;1.60;;;27.50;99.90;;;;;;4975605;28;20528;-76
2021/06/29 11:36:24;;;;;;;2.57;1.60;;;27.30;99.90;;;;;;4975131;28;20403;-76
2021/06/29 11:38:52;;;;;;;1.33;1.23;;;27.50;99.90;;;;;;4975658;28;20527;-75
2021/06/29 11:41:37;;;;;;;3.10;1.80;;;27.20;99.90;;;;;;4975437;28;20419;-76
2021/06/29 11:44:06;;;;;;;1.70;1.60;;;27.70;99.90;;;;;;4973387;28;21009;-77
2021/06/29 11:46:51;;;;;;;1.40;1.30;;;27.30;99.90;;;;;;4973865;28;20431;-76
2021/06/29 11:49:39;;;;;;;1.93;1.67;;;27.70;99.90;;;;;;4972797;28;20932;-76
2021/06/29 11:52:17;;;;;;;2.40;2.10;;;28.30;99.90;;;;;;4974411;28;20543;-76
2021/06/29 11:54:59;;;;;;;2.50;1.80;;;27.70;99.90;;;;;;4973137;28;20804;-75
2021/06/29 11:57:41;;;;;;;1.63;1.47;;;27.80;99.90;;;;;;4972796;28;20431;-75
2021/06/29 12:00:39;;;;;;;2.57;1.70;;;27.80;99.90;;;;;;4974210;28;20458;-76
2021/06/29 12:03:09;;;;;;;1.70;1.60;;;28.20;99.90;;;;;;4982721;28;20478;-76
2021/06/29 12:05:36;;;;;;;3.07;1.67;;;28.00;99.90;;;;;;4972954;28;20444;-76
2021/06/29 12:08:05;;;;;;;1.40;1.20;;;28.10;99.90;;;;;;4973807;28;20423;-76
2021/06/29 12:10:41;;;;;;;2.10;1.83;;;28.60;99.90;;;;;;4973744;28;20506;-76
2021/06/29 12:13:08;;;;;;;1.80;1.70;;;28.60;99.90;;;;;;4972818;28;20542;-76
2021/06/29 12:15:52;;;;;;;1.77;1.67;;;28.90;99.90;;;;;;4973366;28;20534;-75
2021/06/29 12:18:36;;;;;;;3.00;1.90;;;28.70;99.90;;;;;;4974358;28;20407;-75
2021/06/29 12:21:06;;;;;;;3.30;1.90;;;28.70;99.90;;;;;;4975343;28;20418;-76
2021/06/29 12:23:34;;;;;;;3.73;1.97;;;28.80;99.90;;;;;;4974459;28;20424;-75
2021/06/29 12:26:02;;;;;;;2.27;2.07;;;28.50;99.90;;;;;;4975202;28;20416;-75
2021/06/29 12:28:31;;;;;;;2.90;2.43;;;28.10;99.90;;;;;;4974961;28;20511;-75
2021/06/29 12:30:59;;;;;;;2.60;1.70;;;28.20;99.90;;;;;;4974779;28;20418;-75
2021/06/29 12:33:32;;;;;;;1.77;1.67;;;28.30;99.90;;;;;;4974627;28;20455;-75
2021/06/29 12:36:05;;;;;;;3.53;1.90;;;29.00;99.90;;;;;;4975140;28;20470;-76
2021/06/29 12:38:42;;;;;;;2.63;1.90;;;29.00;99.90;;;;;;4974840;28;20416;-76
2021/06/29 12:41:15;;;;;;;1.73;1.63;;;28.30;99.90;;;;;;4974879;28;20407;-76
2021/06/29 12:43:46;;;;;;;1.60;1.30;;;28.60;99.90;;;;;;4974385;28;20418;-75
2021/06/29 12:46:13;;;;;;;1.50;1.40;;;29.40;99.90;;;;;;4975027;28;20423;-76
2021/06/29 12:48:40;;;;;;;3.57;1.57;;;29.50;99.90;;;;;;4974504;28;20403;-77
2021/06/29 12:51:06;;;;;;;1.70;1.50;;;29.70;99.90;;;;;;4974450;28;20447;-75
2021/06/29 12:53:33;;;;;;;2.60;1.20;;;29.40;99.90;;;;;;4974024;28;20502;-75
2021/06/29 12:56:16;;;;;;;1.53;1.40;;;29.60;99.90;;;;;;4974383;28;20470;-75
2021/06/29 12:58:47;;;;;;;1.90;1.53;;;29.30;99.90;;;;;;4974695;28;20415;-75